Time;durP1;ratioP1;P1;durP2;ratioP2;P2;SDS_P1;SDS_P2;PMS_P1;PMS_P2;Temp;Humidity;BMP_temperature;BMP_pressure;BME280_temperature;BME280_humidity;BME280_pressure;Samples;Min_cycle;Max_cycle;Signal;HPM_P1;HPM_P2
2022/06/30 00:00:33;;;;;;;9.80;6.90;;;22.20;75.20;;;;;;5019041;28;20479;-81
2022/06/30 00:03:01;;;;;;;13.97;8.00;;;22.20;75.20;;;;;;5022965;28;21037;-81
2022/06/30 00:05:29;;;;;;;10.77;7.30;;;22.10;75.30;;;;;;5025301;28;20543;-80
2022/06/30 00:07:59;;;;;;;11.80;7.80;;;22.10;75.50;;;;;;5025683;28;20476;-81
2022/06/30 00:10:27;;;;;;;11.70;6.27;;;22.10;75.70;;;;;;5024282;28;20487;-80
2022/06/30 00:12:54;;;;;;;11.63;7.13;;;22.20;75.80;;;;;;5006883;28;21149;-80
2022/06/30 00:15:23;;;;;;;14.73;8.63;;;22.30;75.80;;;;;;5006794;28;20481;-80
2022/06/30 00:17:51;;;;;;;10.40;6.73;;;22.30;75.70;;;;;;5024749;28;20466;-80
2022/06/30 00:20:20;;;;;;;11.20;6.37;;;22.30;75.60;;;;;;5026711;28;20464;-80
2022/06/30 00:22:48;;;;;;;11.07;7.10;;;22.30;75.40;;;;;;5005704;28;20463;-79
2022/06/30 00:25:18;;;;;;;11.17;5.93;;;22.30;75.30;;;;;;5002892;28;20493;-79
2022/06/30 00:27:46;;;;;;;10.30;6.63;;;22.30;75.30;;;;;;5019622;28;20478;-79
2022/06/30 00:30:14;;;;;;;10.70;6.50;;;22.30;75.30;;;;;;5020765;28;20491;-79
2022/06/30 00:32:42;;;;;;;9.47;6.33;;;22.30;75.30;;;;;;5017377;28;20529;-78
2022/06/30 00:35:10;;;;;;;10.20;6.80;;;22.30;75.30;;;;;;5020491;28;20565;-79
2022/06/30 00:37:38;;;;;;;9.53;6.20;;;22.30;75.20;;;;;;5019649;28;21069;-79
2022/06/30 00:40:06;;;;;;;10.07;7.20;;;22.30;75.20;;;;;;5015802;28;20494;-79
2022/06/30 00:42:36;;;;;;;10.23;6.90;;;22.30;75.20;;;;;;4995555;28;20495;-79
2022/06/30 00:45:04;;;;;;;15.63;6.70;;;22.20;75.20;;;;;;5019088;28;20539;-79
2022/06/30 00:47:32;;;;;;;9.43;6.40;;;22.20;75.10;;;;;;5022758;28;20556;-79
2022/06/30 00:50:01;;;;;;;9.97;6.30;;;22.20;75.00;;;;;;5014541;28;20588;-78
2022/06/30 00:52:30;;;;;;;10.00;6.13;;;22.20;75.00;;;;;;5016028;28;20958;-79
2022/06/30 00:54:59;;;;;;;11.80;6.50;;;22.20;75.00;;;;;;5012495;28;20509;-80
2022/06/30 00:57:27;;;;;;;11.40;7.80;;;22.20;75.10;;;;;;5020847;28;20515;-80
2022/06/30 00:59:58;;;;;;;12.90;7.40;;;22.20;75.00;;;;;;5021435;28;20534;-80
2022/06/30 01:02:27;;;;;;;11.00;7.40;;;22.20;75.00;;;;;;4998468;28;20489;-80
2022/06/30 01:04:56;;;;;;;11.93;7.90;;;22.10;75.00;;;;;;5023098;28;20579;-80
2022/06/30 01:07:27;;;;;;;10.10;7.77;;;22.10;75.00;;;;;;5020749;28;20997;-80
2022/06/30 01:12:44;;;;;;;16.53;7.73;;;22.10;75.10;;;;;;5012884;28;20479;-80
2022/06/30 01:15:15;;;;;;;14.63;8.00;;;22.10;75.10;;;;;;5017006;28;20546;-80
2022/06/30 01:17:44;;;;;;;11.37;7.63;;;22.00;75.10;;;;;;5029366;28;21119;-80
2022/06/30 01:20:13;;;;;;;11.00;6.53;;;22.00;75.10;;;;;;5022682;28;20537;-80
2022/06/30 01:22:43;;;;;;;12.83;7.20;;;22.00;75.10;;;;;;5020389;28;20462;-80
2022/06/30 01:25:12;;;;;;;13.10;8.60;;;21.90;75.00;;;;;;5013902;28;20862;-80
2022/06/30 01:27:40;;;;;;;13.83;7.63;;;21.90;75.00;;;;;;5023401;28;20484;-80
2022/06/30 01:30:09;;;;;;;11.10;7.10;;;21.90;75.10;;;;;;5019719;28;20519;-79
2022/06/30 01:32:37;;;;;;;10.90;7.57;;;21.90;75.10;;;;;;5021498;28;20483;-79
2022/06/30 01:35:06;;;;;;;13.60;7.83;;;21.90;75.10;;;;;;5026730;28;20491;-80
2022/06/30 01:37:47;;;;;;;10.23;6.90;;;21.90;75.00;;;;;;5023952;28;20457;-79
2022/06/30 01:40:16;;;;;;;12.00;7.80;;;21.80;75.10;;;;;;5020119;28;20472;-80
2022/06/30 01:42:44;;;;;;;15.57;8.67;;;21.80;75.10;;;;;;5024639;28;20468;-80
2022/06/30 01:45:12;;;;;;;11.97;7.60;;;21.80;75.10;;;;;;5023421;28;20522;-79
2022/06/30 01:47:41;;;;;;;16.27;7.03;;;21.70;75.10;;;;;;5020871;28;21455;-79
2022/06/30 01:50:11;;;;;;;14.20;7.97;;;21.70;75.20;;;;;;5022470;28;20802;-79
2022/06/30 01:52:39;;;;;;;14.37;7.57;;;21.70;75.10;;;;;;5026559;28;21020;-80
2022/06/30 01:55:10;;;;;;;12.07;7.33;;;21.70;75.20;;;;;;5007737;28;20888;-80
2022/06/30 01:57:38;;;;;;;12.03;7.40;;;21.70;75.30;;;;;;5025827;28;20478;-80
2022/06/30 02:00:10;;;;;;;13.30;8.07;;;21.70;75.20;;;;;;5021502;28;20455;-79
2022/06/30 02:02:38;;;;;;;12.33;7.33;;;21.70;75.10;;;;;;5027197;28;20475;-79
2022/06/30 02:05:07;;;;;;;16.27;8.00;;;21.60;75.00;;;;;;5027292;28;20485;-80
2022/06/30 02:07:36;;;;;;;13.90;7.87;;;21.60;75.30;;;;;;5025397;28;20484;-79
2022/06/30 02:10:06;;;;;;;11.10;7.57;;;21.60;75.40;;;;;;5025663;28;21005;-79
2022/06/30 02:12:48;;;;;;;12.20;8.00;;;21.60;75.50;;;;;;5019499;28;20476;-80
2022/06/30 02:15:19;;;;;;;12.13;7.23;;;21.60;75.30;;;;;;5009580;28;20476;-80
2022/06/30 02:17:48;;;;;;;15.73;7.40;;;21.60;75.20;;;;;;5029224;28;20450;-80
2022/06/30 02:20:21;;;;;;;19.43;9.20;;;21.50;75.20;;;;;;5025807;28;20455;-79
2022/06/30 02:22:51;;;;;;;12.50;7.77;;;21.50;75.20;;;;;;5009631;28;20536;-80
2022/06/30 02:25:19;;;;;;;13.13;8.03;;;21.50;75.10;;;;;;5025166;28;20487;-79
2022/06/30 02:27:48;;;;;;;15.03;8.23;;;21.40;75.20;;;;;;5025309;28;20496;-78
2022/06/30 02:30:17;;;;;;;20.10;7.67;;;21.40;75.20;;;;;;5020508;28;20472;-80
2022/06/30 02:32:45;;;;;;;16.80;7.80;;;21.40;75.30;;;;;;5027583;28;20467;-80
2022/06/30 02:35:14;;;;;;;15.37;6.67;;;21.40;75.20;;;;;;5003041;28;20487;-80
2022/06/30 02:37:42;;;;;;;17.40;8.00;;;21.40;75.10;;;;;;5028540;28;20941;-80
2022/06/30 02:40:11;;;;;;;16.90;7.93;;;21.30;75.00;;;;;;5021838;28;20464;-80
2022/06/30 02:42:39;;;;;;;22.47;8.87;;;21.30;75.00;;;;;;5000779;28;20453;-80
2022/06/30 02:45:10;;;;;;;20.60;7.97;;;21.30;74.90;;;;;;5021630;28;20876;-79
2022/06/30 02:47:39;;;;;;;14.83;9.03;;;21.30;74.90;;;;;;5018198;28;20472;-81
2022/06/30 02:50:09;;;;;;;22.43;10.50;;;21.20;74.90;;;;;;5001634;28;20464;-81
2022/06/30 02:52:38;;;;;;;15.23;7.70;;;21.20;75.00;;;;;;5022953;28;20462;-81
2022/06/30 02:55:07;;;;;;;22.90;9.27;;;21.20;75.00;;;;;;5024226;28;20502;-81
2022/06/30 02:57:36;;;;;;;21.30;9.63;;;21.20;74.90;;;;;;5024713;28;20475;-81
2022/06/30 03:00:06;;;;;;;25.23;9.97;;;21.10;74.80;;;;;;5003464;28;20460;-81
2022/06/30 03:02:36;;;;;;;24.00;11.23;;;21.00;74.90;;;;;;5015386;28;20481;-80
2022/06/30 03:05:05;;;;;;;20.57;10.53;;;21.00;74.90;;;;;;5024839;28;20492;-81
2022/06/30 03:07:33;;;;;;;24.90;9.67;;;20.90;75.00;;;;;;5021080;28;20474;-80
2022/06/30 03:10:01;;;;;;;20.77;10.70;;;20.80;75.30;;;;;;5022243;28;20464;-80
2022/06/30 03:12:29;;;;;;;21.90;8.93;;;20.80;75.40;;;;;;5018107;28;20474;-81
2022/06/30 03:14:57;;;;;;;28.90;10.00;;;20.80;75.40;;;;;;5020796;28;20487;-80
2022/06/30 03:17:25;;;;;;;25.70;9.60;;;20.90;75.40;;;;;;5018736;28;20489;-80
2022/06/30 03:19:55;;;;;;;16.63;9.47;;;20.90;75.40;;;;;;5016914;28;20463;-80
2022/06/30 03:22:23;;;;;;;27.47;9.43;;;20.90;75.40;;;;;;5024414;28;20456;-81
2022/06/30 03:24:51;;;;;;;15.63;8.90;;;20.90;75.30;;;;;;5023595;28;20486;-81
2022/06/30 03:27:19;;;;;;;21.27;8.57;;;20.90;75.20;;;;;;5018228;28;20478;-81
2022/06/30 03:29:47;;;;;;;28.07;10.43;;;20.80;75.10;;;;;;5019739;28;20483;-81
2022/06/30 03:32:15;;;;;;;23.13;10.50;;;20.80;75.10;;;;;;5001342;28;20488;-81
2022/06/30 03:34:43;;;;;;;22.73;10.70;;;20.80;75.10;;;;;;5005680;28;20554;-80
2022/06/30 03:37:12;;;;;;;21.70;10.37;;;20.80;75.10;;;;;;5020200;28;20477;-80
2022/06/30 03:39:40;;;;;;;18.90;9.60;;;20.80;75.10;;;;;;5018995;28;21139;-80
2022/06/30 03:42:08;;;;;;;23.33;9.43;;;20.80;75.00;;;;;;5004000;28;20458;-81
2022/06/30 03:44:36;;;;;;;22.53;9.23;;;20.80;75.00;;;;;;5024073;28;20498;-80
2022/06/30 03:47:05;;;;;;;15.17;8.50;;;20.80;74.80;;;;;;5019458;28;20504;-80
2022/06/30 03:49:33;;;;;;;25.50;11.33;;;20.80;74.80;;;;;;5005755;28;20471;-80
2022/06/30 03:52:09;;;;;;;24.83;10.00;;;20.70;74.80;;;;;;5024926;28;20464;-80
2022/06/30 03:54:38;;;;;;;16.23;9.17;;;20.70;74.90;;;;;;5004051;28;20541;-80
2022/06/30 03:57:06;;;;;;;21.90;10.50;;;20.70;75.00;;;;;;5023459;28;20464;-79
2022/06/30 03:59:36;;;;;;;23.50;10.03;;;20.80;75.20;;;;;;5022019;28;20471;-80
2022/06/30 04:02:05;;;;;;;21.07;12.00;;;20.80;75.20;;;;;;5019920;28;21192;-80
2022/06/30 04:04:33;;;;;;;29.23;13.10;;;20.80;75.30;;;;;;5022609;28;20493;-78
2022/06/30 04:07:01;;;;;;;27.17;11.80;;;20.80;75.50;;;;;;5024949;28;20464;-78
2022/06/30 04:09:29;;;;;;;25.67;11.87;;;20.80;75.50;;;;;;5019914;28;20549;-79
2022/06/30 04:11:59;;;;;;;31.10;11.97;;;20.80;75.80;;;;;;5003931;28;20468;-80
2022/06/30 04:14:27;;;;;;;30.43;12.10;;;20.80;76.00;;;;;;5008139;28;20607;-80
2022/06/30 04:16:54;;;;;;;29.37;12.90;;;20.80;76.10;;;;;;5014079;28;20803;-80
2022/06/30 04:19:23;;;;;;;27.30;14.80;;;20.90;76.20;;;;;;5015515;28;20464;-80
2022/06/30 04:21:50;;;;;;;26.80;14.60;;;20.90;76.40;;;;;;5022163;28;20460;-80
2022/06/30 04:24:18;;;;;;;31.23;15.40;;;20.90;76.60;;;;;;5013268;28;20866;-79
2022/06/30 04:26:47;;;;;;;28.70;15.03;;;20.90;76.80;;;;;;5020465;28;20959;-79
2022/06/30 04:29:17;;;;;;;22.37;13.30;;;21.00;77.00;;;;;;5017028;28;20475;-79
2022/06/30 04:34:30;;;;;;;24.40;14.20;;;21.10;77.40;;;;;;5024700;28;20483;-80
2022/06/30 04:36:58;;;;;;;30.37;15.60;;;21.10;77.40;;;;;;5022551;28;20522;-79
2022/06/30 04:39:26;;;;;;;33.07;15.53;;;21.20;77.50;;;;;;5024586;28;20471;-80
2022/06/30 04:41:53;;;;;;;26.80;15.90;;;21.20;77.60;;;;;;5016968;28;20452;-82
2022/06/30 04:44:22;;;;;;;26.90;15.03;;;21.30;77.70;;;;;;5018756;28;20905;-79
2022/06/30 04:46:50;;;;;;;26.00;15.07;;;21.30;77.80;;;;;;5021048;28;20559;-80
2022/06/30 04:49:18;;;;;;;26.13;14.53;;;21.40;77.90;;;;;;5016861;28;20534;-80
2022/06/30 04:51:46;;;;;;;34.13;17.00;;;21.40;78.10;;;;;;5017520;28;20464;-80
2022/06/30 04:54:14;;;;;;;31.83;16.20;;;21.40;78.20;;;;;;5024491;28;20459;-80
2022/06/30 04:56:42;;;;;;;29.50;17.30;;;21.50;78.30;;;;;;5019738;28;20837;-80
2022/06/30 04:59:10;;;;;;;31.17;16.47;;;21.50;78.50;;;;;;5022895;28;20456;-80
2022/06/30 05:01:40;;;;;;;35.70;16.60;;;21.60;78.70;;;;;;5006168;28;20476;-80
2022/06/30 05:04:08;;;;;;;29.13;16.13;;;21.60;78.80;;;;;;5020767;28;20463;-80
2022/06/30 05:06:36;;;;;;;28.10;15.97;;;21.70;78.90;;;;;;5023593;28;20456;-80
2022/06/30 05:09:04;;;;;;;29.33;13.90;;;21.70;79.10;;;;;;5019563;28;20583;-80
2022/06/30 05:11:33;;;;;;;29.60;14.00;;;21.80;79.10;;;;;;5011175;28;20446;-80
2022/06/30 05:14:01;;;;;;;24.83;15.47;;;21.80;79.30;;;;;;5024261;28;20516;-80
2022/06/30 05:16:28;;;;;;;26.70;15.37;;;21.90;79.30;;;;;;5015269;28;20473;-80
2022/06/30 05:18:58;;;;;;;22.17;13.97;;;21.90;79.40;;;;;;5019627;28;20514;-80
2022/06/30 05:21:26;;;;;;;28.40;13.13;;;22.00;79.40;;;;;;5024582;28;20995;-80
2022/06/30 05:26:39;;;;;;;22.07;12.57;;;22.00;79.50;;;;;;5007277;28;20515;-80
2022/06/30 05:29:07;;;;;;;28.73;15.93;;;22.10;79.60;;;;;;5020487;28;20479;-80
2022/06/30 05:31:35;;;;;;;25.30;14.87;;;22.10;79.60;;;;;;5007299;28;20468;-80
2022/06/30 05:34:05;;;;;;;25.67;15.77;;;22.10;79.60;;;;;;5025032;28;20518;-80
2022/06/30 05:36:33;;;;;;;22.57;14.90;;;22.10;79.70;;;;;;5022827;28;20476;-80
2022/06/30 05:39:01;;;;;;;24.23;14.83;;;22.10;79.70;;;;;;5004915;28;20462;-80
2022/06/30 05:41:28;;;;;;;22.70;15.60;;;22.10;79.80;;;;;;5021499;28;20464;-80
2022/06/30 05:43:56;;;;;;;27.83;16.97;;;22.10;80.00;;;;;;5023016;28;20455;-80
2022/06/30 05:46:24;;;;;;;27.17;16.33;;;22.10;80.10;;;;;;5016254;28;20564;-79
2022/06/30 05:48:52;;;;;;;24.03;15.80;;;22.10;80.20;;;;;;5018538;28;20517;-80
2022/06/30 05:51:22;;;;;;;28.40;16.20;;;22.20;80.10;;;;;;5019714;28;20452;-79
2022/06/30 05:53:50;;;;;;;24.70;16.43;;;22.20;80.20;;;;;;5021315;28;21243;-79
2022/06/30 05:56:19;;;;;;;24.00;15.83;;;22.20;80.40;;;;;;5017676;28;20839;-79
2022/06/30 05:58:47;;;;;;;32.13;18.07;;;22.20;80.40;;;;;;5020330;28;20449;-78
2022/06/30 06:01:15;;;;;;;24.70;15.93;;;22.30;80.50;;;;;;5019491;28;20895;-79
2022/06/30 06:03:43;;;;;;;22.47;15.67;;;22.30;80.60;;;;;;5022837;28;20459;-80
2022/06/30 06:06:11;;;;;;;27.60;16.27;;;22.30;80.60;;;;;;5013405;28;21372;-79
2022/06/30 06:08:40;;;;;;;26.87;16.97;;;22.40;80.60;;;;;;5028721;28;20512;-79
2022/06/30 06:11:08;;;;;;;23.40;15.80;;;22.50;80.60;;;;;;5030004;28;20483;-79
2022/06/30 06:13:36;;;;;;;26.30;15.60;;;22.50;80.60;;;;;;5030467;28;20502;-80
2022/06/30 06:16:05;;;;;;;24.70;16.00;;;22.60;80.80;;;;;;5035048;28;20533;-79
2022/06/30 06:18:33;;;;;;;22.23;15.17;;;22.60;80.90;;;;;;5032014;28;20458;-80
2022/06/30 06:21:01;;;;;;;27.33;15.77;;;22.70;80.90;;;;;;5027611;28;20444;-79
2022/06/30 06:23:48;;;;;;;19.47;13.97;;;22.80;80.80;;;;;;5033259;28;20475;-79
2022/06/30 06:26:16;;;;;;;21.43;16.13;;;22.90;80.60;;;;;;5029945;28;20471;-79
2022/06/30 06:29:08;;;;;;;21.70;14.57;;;22.90;80.60;;;;;;5016230;28;20477;-79
2022/06/30 06:31:39;;;;;;;20.90;14.23;;;23.00;80.60;;;;;;5009496;28;20483;-80
2022/06/30 06:34:07;;;;;;;25.27;15.87;;;23.00;80.60;;;;;;5025919;28;20477;-79
2022/06/30 06:36:36;;;;;;;20.60;15.13;;;23.00;80.70;;;;;;5017044;28;20542;-79
2022/06/30 06:39:06;;;;;;;19.57;14.60;;;23.10;80.70;;;;;;5018239;28;20444;-79
2022/06/30 06:41:34;;;;;;;24.77;14.67;;;23.20;80.80;;;;;;5021075;28;20460;-79
2022/06/30 06:44:02;;;;;;;20.00;14.23;;;23.30;80.70;;;;;;5026644;28;20459;-79
2022/06/30 06:46:30;;;;;;;20.10;15.17;;;23.40;80.70;;;;;;5012905;28;20481;-79
2022/06/30 06:49:01;;;;;;;18.37;13.73;;;23.50;80.60;;;;;;5008963;28;20996;-79
2022/06/30 06:51:29;;;;;;;17.90;13.30;;;23.60;80.60;;;;;;5017319;28;20500;-79
2022/06/30 06:53:57;;;;;;;18.80;13.33;;;23.70;80.50;;;;;;5028863;28;20448;-79
2022/06/30 06:56:27;;;;;;;17.30;13.77;;;23.80;80.30;;;;;;5014388;28;20464;-79
2022/06/30 06:59:00;;;;;;;16.50;13.20;;;23.90;80.20;;;;;;5025369;28;20669;-80
2022/06/30 07:01:28;;;;;;;17.13;13.53;;;23.90;80.20;;;;;;5013596;28;21025;-80
2022/06/30 07:03:57;;;;;;;18.23;13.80;;;24.00;80.00;;;;;;5026384;28;20454;-79
2022/06/30 07:06:25;;;;;;;18.40;14.60;;;24.00;79.90;;;;;;5025866;28;20474;-80
2022/06/30 07:08:53;;;;;;;19.17;13.47;;;24.00;79.90;;;;;;5009967;28;20458;-80
2022/06/30 07:11:21;;;;;;;17.13;13.53;;;24.00;79.80;;;;;;5027306;28;20477;-79
2022/06/30 07:13:50;;;;;;;18.00;12.83;;;24.00;79.90;;;;;;5023293;28;20444;-79
2022/06/30 07:16:18;;;;;;;19.40;12.87;;;24.10;79.90;;;;;;5019819;28;21033;-80
2022/06/30 07:18:46;;;;;;;16.90;12.60;;;24.10;79.90;;;;;;5010791;28;21056;-80
2022/06/30 07:21:15;;;;;;;14.90;10.80;;;24.10;80.00;;;;;;5024436;28;20987;-79
2022/06/30 07:23:43;;;;;;;14.33;10.50;;;24.20;79.90;;;;;;5020960;28;20486;-79
2022/06/30 07:26:12;;;;;;;16.10;10.87;;;24.30;79.70;;;;;;5017106;28;20477;-80
2022/06/30 07:28:40;;;;;;;14.90;10.33;;;24.30;79.60;;;;;;5019129;28;20456;-80
2022/06/30 07:31:22;;;;;;;14.80;10.53;;;24.30;79.50;;;;;;5016356;28;20482;-80
2022/06/30 07:33:50;;;;;;;15.57;10.63;;;24.40;79.50;;;;;;5020814;28;20450;-79
2022/06/30 07:36:18;;;;;;;14.77;11.07;;;24.50;79.50;;;;;;5025549;28;20478;-79
2022/06/30 07:38:47;;;;;;;11.60;8.97;;;24.50;79.40;;;;;;5028480;28;20455;-80
2022/06/30 07:41:15;;;;;;;18.30;10.80;;;24.60;79.30;;;;;;5016660;28;20466;-79
2022/06/30 07:43:43;;;;;;;14.97;9.83;;;24.70;79.10;;;;;;5005735;28;20891;-79
2022/06/30 07:46:12;;;;;;;11.23;9.00;;;24.70;78.90;;;;;;5014563;28;20492;-79
2022/06/30 07:48:41;;;;;;;11.43;9.23;;;24.70;78.80;;;;;;5028808;28;20585;-80
2022/06/30 07:51:09;;;;;;;12.50;9.43;;;24.80;78.60;;;;;;5015662;28;20486;-79
2022/06/30 07:53:38;;;;;;;12.73;8.40;;;24.90;78.50;;;;;;5020823;28;20557;-80
2022/06/30 07:56:06;;;;;;;12.13;8.40;;;24.90;78.20;;;;;;5026387;28;20476;-80
2022/06/30 07:58:34;;;;;;;14.67;9.00;;;25.00;78.20;;;;;;5016352;28;20449;-80
2022/06/30 08:01:02;;;;;;;13.70;9.63;;;25.00;78.10;;;;;;5011629;28;21387;-80
2022/06/30 08:03:30;;;;;;;10.30;8.20;;;25.10;78.00;;;;;;5003984;28;20460;-80
2022/06/30 08:06:00;;;;;;;13.90;9.83;;;25.10;77.80;;;;;;5005218;28;20538;-80
2022/06/30 08:08:28;;;;;;;17.27;9.13;;;25.10;77.80;;;;;;5028259;28;20497;-80
2022/06/30 08:10:57;;;;;;;20.10;10.03;;;25.20;77.80;;;;;;5017809;28;20813;-80
2022/06/30 08:13:31;;;;;;;16.00;9.07;;;25.20;77.70;;;;;;5023850;28;20817;-80
2022/06/30 08:15:59;;;;;;;14.57;8.80;;;25.30;77.60;;;;;;5018881;28;20849;-80
2022/06/30 08:18:27;;;;;;;13.33;8.60;;;25.30;77.40;;;;;;5018246;28;20480;-80
2022/06/30 08:20:55;;;;;;;11.87;9.10;;;25.40;77.30;;;;;;5015476;28;20461;-80
2022/06/30 08:23:25;;;;;;;12.60;9.17;;;25.40;77.20;;;;;;5027796;28;20465;-80
2022/06/30 08:25:53;;;;;;;11.57;9.10;;;25.40;77.00;;;;;;5012542;28;20492;-80
2022/06/30 08:28:20;;;;;;;12.03;10.20;;;25.40;77.00;;;;;;5017896;28;20445;-80
2022/06/30 08:30:50;;;;;;;11.50;8.47;;;25.50;76.90;;;;;;5013860;28;20478;-80
2022/06/30 08:33:18;;;;;;;12.40;9.00;;;25.50;76.80;;;;;;5015803;28;20564;-80
2022/06/30 08:35:46;;;;;;;11.10;8.77;;;25.50;76.60;;;;;;5018071;28;21002;-80
2022/06/30 08:38:31;;;;;;;10.43;8.40;;;25.50;76.60;;;;;;5018652;28;20957;-80
2022/06/30 08:43:45;;;;;;;10.87;8.70;;;25.60;76.30;;;;;;5025689;28;20456;-80
2022/06/30 08:46:15;;;;;;;12.20;9.37;;;25.60;76.20;;;;;;5020191;28;20482;-80
2022/06/30 08:48:44;;;;;;;11.73;9.00;;;25.60;76.10;;;;;;5026679;28;20456;-80
2022/06/30 08:51:15;;;;;;;15.43;8.20;;;25.70;76.00;;;;;;5010972;28;21051;-80
2022/06/30 08:53:52;;;;;;;9.93;7.63;;;25.70;75.60;;;;;;5001702;28;20822;-80
2022/06/30 08:56:20;;;;;;;11.37;8.00;;;25.70;75.50;;;;;;5011942;28;20565;-80
2022/06/30 08:58:51;;;;;;;11.20;8.23;;;25.70;75.20;;;;;;5022270;28;20454;-80
2022/06/30 09:01:19;;;;;;;10.23;8.30;;;25.70;74.80;;;;;;5020166;28;20572;-80
2022/06/30 09:03:48;;;;;;;9.10;7.83;;;25.80;74.80;;;;;;5013286;28;20946;-80
2022/06/30 09:06:16;;;;;;;9.97;7.50;;;25.80;74.60;;;;;;5007727;28;20515;-80
2022/06/30 09:09:04;;;;;;;9.23;6.40;;;25.80;74.30;;;;;;5013550;28;20445;-80
2022/06/30 09:11:45;;;;;;;8.80;6.17;;;25.80;74.10;;;;;;5008010;28;20500;-80
2022/06/30 09:14:31;;;;;;;10.83;6.40;;;25.90;74.00;;;;;;5015575;28;20444;-80
2022/06/30 09:17:00;;;;;;;9.57;5.97;;;25.90;73.90;;;;;;5011188;28;20474;-80
2022/06/30 09:19:28;;;;;;;8.87;5.73;;;26.00;73.60;;;;;;5019585;28;20471;-80
2022/06/30 09:22:05;;;;;;;7.13;5.40;;;26.10;73.10;;;;;;5008374;28;20452;-80
2022/06/30 09:24:34;;;;;;;12.40;6.47;;;26.20;72.70;;;;;;5016288;28;20475;-80
2022/06/30 09:27:20;;;;;;;11.93;5.23;;;26.20;72.20;;;;;;5016849;28;20945;-80
2022/06/30 09:29:51;;;;;;;10.13;5.30;;;26.30;71.60;;;;;;5020418;28;20461;-80
2022/06/30 09:32:50;;;;;;;7.87;5.20;;;26.40;71.10;;;;;;5016789;28;20795;-80
2022/06/30 09:35:20;;;;;;;9.20;5.67;;;26.40;70.60;;;;;;5009972;28;20904;-80
2022/06/30 09:37:58;;;;;;;11.77;5.57;;;26.50;70.20;;;;;;5019111;28;20479;-80
2022/06/30 09:40:33;;;;;;;7.53;5.30;;;26.50;69.90;;;;;;5021318;28;20466;-80
2022/06/30 09:43:01;;;;;;;8.03;5.00;;;26.60;69.80;;;;;;5021615;28;20446;-80
2022/06/30 09:45:38;;;;;;;8.03;5.70;;;26.70;69.50;;;;;;5010340;28;20911;-80
2022/06/30 09:48:08;;;;;;;10.63;6.00;;;26.70;68.90;;;;;;5005894;28;20519;-79
2022/06/30 09:50:36;;;;;;;7.70;4.87;;;26.80;68.70;;;;;;5016010;28;21360;-79
2022/06/30 09:53:15;;;;;;;7.00;5.00;;;26.80;68.60;;;;;;5018577;28;20872;-79
2022/06/30 09:55:48;;;;;;;7.70;5.17;;;26.80;67.50;;;;;;5019230;28;20471;-79
2022/06/30 09:58:34;;;;;;;9.47;4.77;;;26.90;67.90;;;;;;5023099;28;20981;-79
2022/06/30 10:01:02;;;;;;;7.17;4.30;;;27.00;67.40;;;;;;5019168;28;20516;-79
2022/06/30 10:03:35;;;;;;;6.70;3.97;;;27.00;67.00;;;;;;5023876;28;20458;-79
2022/06/30 10:06:11;;;;;;;5.40;3.53;;;27.10;66.70;;;;;;5023267;28;20482;-79
2022/06/30 10:08:39;;;;;;;5.43;3.53;;;27.10;66.30;;;;;;5020537;28;20965;-79
2022/06/30 10:11:09;;;;;;;6.80;3.77;;;27.20;65.90;;;;;;5019508;28;20932;-79
2022/06/30 10:13:40;;;;;;;5.43;3.33;;;27.20;65.10;;;;;;5020060;28;20860;-79
2022/06/30 10:16:09;;;;;;;7.20;3.40;;;27.30;64.40;;;;;;5007116;28;20480;-79
2022/06/30 10:18:40;;;;;;;6.03;3.17;;;27.30;63.60;;;;;;5020516;28;20550;-77
2022/06/30 10:21:10;;;;;;;5.47;3.20;;;27.40;62.80;;;;;;5026855;28;20462;-77
2022/06/30 10:23:38;;;;;;;6.40;3.40;;;27.50;62.70;;;;;;5020226;28;20454;-77
2022/06/30 10:27:11;;;;;;;6.53;3.67;;;27.50;61.90;;;;;;5020172;28;20480;-77
2022/06/30 10:28:56;;;;;;;6.97;3.83;;;27.50;61.80;;;;;;5010293;28;20521;-77
2022/06/30 10:31:30;;;;;;;5.50;3.27;;;27.60;61.50;;;;;;5018661;28;20838;-77
2022/06/30 10:34:05;;;;;;;6.50;3.50;;;27.60;61.30;;;;;;5026450;28;20950;-77
2022/06/30 10:36:40;;;;;;;6.20;3.33;;;27.70;60.80;;;;;;5025562;28;20463;-77
2022/06/30 10:39:18;;;;;;;7.67;3.30;;;27.70;60.60;;;;;;5026836;28;20830;-77
2022/06/30 10:41:49;;;;;;;6.03;3.77;;;27.80;60.20;;;;;;5026674;28;20951;-77
2022/06/30 10:44:23;;;;;;;6.70;3.80;;;27.80;59.90;;;;;;5020125;28;20446;-77
2022/06/30 10:47:09;;;;;;;6.30;3.50;;;27.90;59.80;;;;;;4998668;28;20475;-77
2022/06/30 10:49:55;;;;;;;8.87;3.27;;;27.90;59.60;;;;;;5018072;28;20456;-77
2022/06/30 10:52:27;;;;;;;9.47;3.17;;;28.00;59.30;;;;;;5007264;28;20592;-77
2022/06/30 10:55:06;;;;;;;9.67;2.93;;;28.00;58.70;;;;;;5025873;28;20483;-77
2022/06/30 10:58:04;;;;;;;6.60;3.10;;;28.00;58.10;;;;;;5021311;28;20452;-77
2022/06/30 11:00:50;;;;;;;5.60;2.97;;;28.10;58.20;;;;;;5020572;28;20480;-77
2022/06/30 11:03:58;;;;;;;5.10;3.03;;;28.10;57.60;;;;;;5014507;28;20463;-77
2022/06/30 11:07:06;;;;;;;5.13;2.93;;;28.20;57.80;;;;;;5020605;28;20445;-77
2022/06/30 11:09:57;;;;;;;6.20;3.03;;;28.20;57.40;;;;;;5024262;28;20835;-77
2022/06/30 11:12:57;;;;;;;6.17;3.00;;;28.30;57.20;;;;;;5020834;28;20503;-77
2022/06/30 11:16:12;;;;;;;6.70;3.50;;;28.30;57.20;;;;;;5021529;28;21260;-77
2022/06/30 11:27:20;;;;;;;6.40;2.90;;;28.60;56.30;;;;;;5020076;28;20431;-77
2022/06/30 11:29:49;;;;;;;6.13;2.77;;;28.60;56.40;;;;;;5022134;28;20459;-76
2022/06/30 11:32:23;;;;;;;5.03;3.00;;;28.70;56.30;;;;;;5014966;28;20473;-77
2022/06/30 11:34:52;;;;;;;5.67;3.20;;;28.80;56.10;;;;;;5025319;28;20480;-77
2022/06/30 11:37:21;;;;;;;6.27;3.00;;;28.90;56.30;;;;;;5026969;28;20477;-77
2022/06/30 11:39:57;;;;;;;6.23;3.10;;;29.00;56.00;;;;;;5021887;28;20490;-77
2022/06/30 11:50:51;;;;;;;5.03;2.70;;;29.00;55.20;;;;;;5021902;28;20470;-77
2022/06/30 11:53:20;;;;;;;7.60;3.30;;;28.80;55.00;;;;;;5025530;28;20535;-77
2022/06/30 11:55:48;;;;;;;4.90;2.90;;;28.80;55.00;;;;;;5023708;28;21165;-77
2022/06/30 11:58:15;;;;;;;6.07;3.30;;;28.80;54.90;;;;;;5023995;28;21079;-80
2022/06/30 12:00:44;;;;;;;5.60;3.30;;;28.70;55.00;;;;;;5022343;28;21296;-77
2022/06/30 12:03:13;;;;;;;8.97;3.97;;;28.80;55.10;;;;;;5016474;28;20442;-77
2022/06/30 12:05:41;;;;;;;5.50;3.03;;;28.80;54.90;;;;;;5022223;28;20474;-77
2022/06/30 12:08:13;;;;;;;8.50;3.20;;;28.80;54.90;;;;;;5025165;28;20503;-77
2022/06/30 12:18:48;;;;;;;11.53;3.87;;;28.90;54.50;;;;;;5024749;28;21038;-77
2022/06/30 12:21:16;;;;;;;4.67;3.10;;;29.00;54.60;;;;;;5018458;28;20509;-77
2022/06/30 12:23:48;;;;;;;5.20;2.97;;;29.10;54.60;;;;;;5026693;28;20446;-77
2022/06/30 12:26:20;;;;;;;6.63;3.23;;;29.20;54.20;;;;;;5025203;28;20498;-77
2022/06/30 12:28:51;;;;;;;7.50;3.20;;;29.30;54.20;;;;;;5029205;28;20456;-77
2022/06/30 12:31:23;;;;;;;7.30;3.43;;;29.30;53.70;;;;;;5025369;28;20478;-77
2022/06/30 12:33:52;;;;;;;6.17;3.73;;;29.40;53.60;;;;;;5022024;28;20473;-77
2022/06/30 12:36:24;;;;;;;5.30;3.33;;;29.40;53.50;;;;;;5022804;28;20572;-77
2022/06/30 12:38:54;;;;;;;7.53;3.50;;;29.30;53.50;;;;;;5023930;28;20942;-77
2022/06/30 12:41:24;;;;;;;6.63;3.47;;;29.40;53.40;;;;;;5021308;28;20469;-77
2022/06/30 12:43:52;;;;;;;10.37;3.60;;;29.40;53.40;;;;;;5020569;28;20482;-77
2022/06/30 12:46:20;;;;;;;5.90;3.63;;;29.40;53.40;;;;;;5016895;28;21078;-77
2022/06/30 12:48:52;;;;;;;6.83;3.70;;;29.40;53.40;;;;;;5018073;28;20455;-77
2022/06/30 12:51:42;;;;;;;6.60;3.77;;;29.40;53.50;;;;;;5005222;28;20963;-77
2022/06/30 12:54:16;;;;;;;4.83;2.97;;;29.40;52.80;;;;;;5017313;28;20483;-77
2022/06/30 12:56:50;;;;;;;5.70;3.50;;;29.40;53.00;;;;;;5021335;28;20457;-77
2022/06/30 12:59:20;;;;;;;5.03;3.50;;;29.40;53.00;;;;;;5015316;28;20466;-77
2022/06/30 13:01:54;;;;;;;5.27;3.43;;;29.40;53.00;;;;;;5020604;28;20483;-78
2022/06/30 13:04:25;;;;;;;6.03;3.20;;;29.50;53.10;;;;;;5015947;28;20517;-79
2022/06/30 13:06:55;;;;;;;5.00;3.43;;;29.50;53.20;;;;;;5013390;28;20460;-78
2022/06/30 13:09:26;;;;;;;6.33;3.70;;;29.50;53.30;;;;;;5019052;28;20448;-78
2022/06/30 13:11:56;;;;;;;5.17;3.40;;;29.50;53.20;;;;;;5016584;28;20458;-77
2022/06/30 13:14:27;;;;;;;8.00;5.00;;;29.50;53.10;;;;;;5020250;28;20532;-78
2022/06/30 13:16:56;;;;;;;7.27;3.43;;;29.50;53.00;;;;;;5019784;28;21095;-77
2022/06/30 13:19:25;;;;;;;8.87;4.57;;;29.50;53.10;;;;;;5019033;28;20553;-78
2022/06/30 13:21:53;;;;;;;6.27;3.37;;;29.60;53.30;;;;;;5014736;28;20538;-78
2022/06/30 13:24:22;;;;;;;7.10;3.40;;;29.70;53.40;;;;;;5022413;28;20489;-77
2022/06/30 13:26:53;;;;;;;24.37;14.70;;;29.80;53.30;;;;;;5016556;28;20454;-77
2022/06/30 13:29:22;;;;;;;14.80;9.60;;;29.80;53.20;;;;;;5020538;28;20467;-78